sensor_id;sensor_type;location;lat;lon;timestamp;P1;durP1;ratioP1;P2;durP2;ratioP2
22955;SDS011;40888;48.148;11.526;2023-11-22T00:01:49;23.20;;;18.13;;
22955;SDS011;40888;48.148;11.526;2023-11-22T00:04:15;24.87;;;19.33;;
22955;SDS011;40888;48.148;11.526;2023-11-22T00:06:42;26.00;;;18.43;;
22955;SDS011;40888;48.148;11.526;2023-11-22T00:09:09;31.13;;;21.87;;
22955;SDS011;40888;48.148;11.526;2023-11-22T00:11:35;27.37;;;19.03;;
22955;SDS011;40888;48.148;11.526;2023-11-22T00:14:01;37.33;;;23.77;;
22955;SDS011;40888;48.148;11.526;2023-11-22T00:16:27;27.40;;;20.63;;
22955;SDS011;40888;48.148;11.526;2023-11-22T00:18:55;28.73;;;21.20;;
22955;SDS011;40888;48.148;11.526;2023-11-22T00:21:21;34.00;;;22.27;;
22955;SDS011;40888;48.148;11.526;2023-11-22T00:23:47;22.30;;;16.90;;
22955;SDS011;40888;48.148;11.526;2023-11-22T00:26:13;30.87;;;20.00;;
22955;SDS011;40888;48.148;11.526;2023-11-22T00:28:40;30.63;;;19.60;;
22955;SDS011;40888;48.148;11.526;2023-11-22T00:31:06;19.97;;;16.90;;
22955;SDS011;40888;48.148;11.526;2023-11-22T00:33:33;27.93;;;21.60;;
22955;SDS011;40888;48.148;11.526;2023-11-22T00:35:59;30.30;;;20.57;;
22955;SDS011;40888;48.148;11.526;2023-11-22T00:38:29;32.50;;;22.30;;
22955;SDS011;40888;48.148;11.526;2023-11-22T00:40:55;26.83;;;19.97;;
22955;SDS011;40888;48.148;11.526;2023-11-22T00:43:21;36.60;;;22.87;;
22955;SDS011;40888;48.148;11.526;2023-11-22T00:45:48;34.97;;;24.57;;
22955;SDS011;40888;48.148;11.526;2023-11-22T00:48:14;36.17;;;24.00;;
22955;SDS011;40888;48.148;11.526;2023-11-22T00:50:40;23.60;;;17.10;;
22955;SDS011;40888;48.148;11.526;2023-11-22T00:53:06;30.83;;;20.27;;
22955;SDS011;40888;48.148;11.526;2023-11-22T00:55:32;25.60;;;17.80;;
22955;SDS011;40888;48.148;11.526;2023-11-22T00:57:59;24.83;;;16.50;;
22955;SDS011;40888;48.148;11.526;2023-11-22T01:00:29;18.47;;;15.73;;
22955;SDS011;40888;48.148;11.526;2023-11-22T01:02:55;20.53;;;16.23;;
22955;SDS011;40888;48.148;11.526;2023-11-22T01:05:21;18.77;;;15.73;;
22955;SDS011;40888;48.148;11.526;2023-11-22T01:07:47;15.43;;;12.97;;
22955;SDS011;40888;48.148;11.526;2023-11-22T01:10:13;15.80;;;12.87;;
22955;SDS011;40888;48.148;11.526;2023-11-22T01:12:40;15.80;;;12.33;;
22955;SDS011;40888;48.148;11.526;2023-11-22T01:15:07;12.27;;;11.00;;
22955;SDS011;40888;48.148;11.526;2023-11-22T01:17:34;17.60;;;15.17;;
22955;SDS011;40888;48.148;11.526;2023-11-22T01:20:00;22.27;;;17.20;;
22955;SDS011;40888;48.148;11.526;2023-11-22T01:22:26;17.73;;;14.87;;
22955;SDS011;40888;48.148;11.526;2023-11-22T01:24:52;16.87;;;15.10;;
22955;SDS011;40888;48.148;11.526;2023-11-22T01:27:18;17.47;;;14.60;;
22955;SDS011;40888;48.148;11.526;2023-11-22T01:29:45;19.77;;;15.87;;
22955;SDS011;40888;48.148;11.526;2023-11-22T01:32:11;24.27;;;18.30;;
22955;SDS011;40888;48.148;11.526;2023-11-22T01:34:38;28.63;;;20.80;;
22955;SDS011;40888;48.148;11.526;2023-11-22T01:37:04;28.30;;;20.00;;
22955;SDS011;40888;48.148;11.526;2023-11-22T01:39:30;21.00;;;17.30;;
22955;SDS011;40888;48.148;11.526;2023-11-22T01:41:57;20.67;;;15.87;;
22955;SDS011;40888;48.148;11.526;2023-11-22T01:44:23;18.67;;;15.20;;
22955;SDS011;40888;48.148;11.526;2023-11-22T01:46:49;17.40;;;14.43;;
22955;SDS011;40888;48.148;11.526;2023-11-22T01:49:15;19.30;;;14.90;;
22955;SDS011;40888;48.148;11.526;2023-11-22T01:51:41;25.10;;;18.90;;
22955;SDS011;40888;48.148;11.526;2023-11-22T01:54:08;15.37;;;13.77;;
22955;SDS011;40888;48.148;11.526;2023-11-22T01:56:35;22.20;;;16.90;;
22955;SDS011;40888;48.148;11.526;2023-11-22T01:59:02;18.87;;;16.23;;
22955;SDS011;40888;48.148;11.526;2023-11-22T02:01:29;19.43;;;13.83;;
22955;SDS011;40888;48.148;11.526;2023-11-22T02:03:56;18.00;;;15.37;;
22955;SDS011;40888;48.148;11.526;2023-11-22T02:06:22;15.33;;;13.43;;
22955;SDS011;40888;48.148;11.526;2023-11-22T02:08:49;14.23;;;12.73;;
22955;SDS011;40888;48.148;11.526;2023-11-22T02:11:19;12.50;;;9.50;;
22955;SDS011;40888;48.148;11.526;2023-11-22T02:13:47;13.53;;;11.07;;
22955;SDS011;40888;48.148;11.526;2023-11-22T02:16:15;8.83;;;7.97;;
22955;SDS011;40888;48.148;11.526;2023-11-22T02:18:43;7.07;;;6.37;;
22955;SDS011;40888;48.148;11.526;2023-11-22T02:21:09;9.07;;;8.00;;
22955;SDS011;40888;48.148;11.526;2023-11-22T02:23:36;8.37;;;6.73;;
22955;SDS011;40888;48.148;11.526;2023-11-22T02:26:02;11.37;;;8.73;;
22955;SDS011;40888;48.148;11.526;2023-11-22T02:28:28;11.03;;;8.30;;
22955;SDS011;40888;48.148;11.526;2023-11-22T02:30:54;8.03;;;7.23;;
22955;SDS011;40888;48.148;11.526;2023-11-22T02:33:20;5.80;;;5.30;;
22955;SDS011;40888;48.148;11.526;2023-11-22T02:35:46;4.90;;;4.50;;
22955;SDS011;40888;48.148;11.526;2023-11-22T02:38:12;5.50;;;5.00;;
22955;SDS011;40888;48.148;11.526;2023-11-22T02:40:39;8.17;;;7.47;;
22955;SDS011;40888;48.148;11.526;2023-11-22T02:43:05;8.50;;;7.80;;
22955;SDS011;40888;48.148;11.526;2023-11-22T02:45:34;8.00;;;7.20;;
22955;SDS011;40888;48.148;11.526;2023-11-22T02:48:00;6.97;;;6.37;;
22955;SDS011;40888;48.148;11.526;2023-11-22T02:50:28;5.60;;;5.13;;
22955;SDS011;40888;48.148;11.526;2023-11-22T02:52:56;5.10;;;4.70;;
22955;SDS011;40888;48.148;11.526;2023-11-22T02:55:23;4.63;;;4.23;;
22955;SDS011;40888;48.148;11.526;2023-11-22T02:57:50;5.53;;;5.03;;
22955;SDS011;40888;48.148;11.526;2023-11-22T03:00:16;4.73;;;4.33;;
22955;SDS011;40888;48.148;11.526;2023-11-22T03:02:43;5.00;;;4.60;;
22955;SDS011;40888;48.148;11.526;2023-11-22T03:05:10;5.73;;;5.20;;
22955;SDS011;40888;48.148;11.526;2023-11-22T03:07:37;5.10;;;4.70;;
22955;SDS011;40888;48.148;11.526;2023-11-22T03:10:03;5.43;;;5.03;;
22955;SDS011;40888;48.148;11.526;2023-11-22T03:12:30;3.60;;;3.30;;
22955;SDS011;40888;48.148;11.526;2023-11-22T03:14:56;5.10;;;4.70;;
22955;SDS011;40888;48.148;11.526;2023-11-22T03:17:26;6.10;;;5.50;;
22955;SDS011;40888;48.148;11.526;2023-11-22T03:19:53;4.67;;;4.27;;
22955;SDS011;40888;48.148;11.526;2023-11-22T03:22:22;6.30;;;5.70;;
22955;SDS011;40888;48.148;11.526;2023-11-22T03:24:48;7.50;;;6.60;;
22955;SDS011;40888;48.148;11.526;2023-11-22T03:27:14;8.53;;;7.63;;
22955;SDS011;40888;48.148;11.526;2023-11-22T03:29:41;7.40;;;6.73;;
22955;SDS011;40888;48.148;11.526;2023-11-22T03:32:07;5.10;;;4.70;;
22955;SDS011;40888;48.148;11.526;2023-11-22T03:34:33;6.70;;;6.10;;
22955;SDS011;40888;48.148;11.526;2023-11-22T03:36:59;4.40;;;4.10;;
22955;SDS011;40888;48.148;11.526;2023-11-22T03:39:25;5.10;;;4.70;;
22955;SDS011;40888;48.148;11.526;2023-11-22T03:41:51;7.03;;;6.33;;
22955;SDS011;40888;48.148;11.526;2023-11-22T03:44:18;8.40;;;7.60;;
22955;SDS011;40888;48.148;11.526;2023-11-22T03:46:44;4.70;;;4.30;;
22955;SDS011;40888;48.148;11.526;2023-11-22T03:49:10;6.30;;;5.53;;
22955;SDS011;40888;48.148;11.526;2023-11-22T03:51:37;4.10;;;3.80;;
22955;SDS011;40888;48.148;11.526;2023-11-22T03:54:03;7.10;;;6.50;;
22955;SDS011;40888;48.148;11.526;2023-11-22T03:56:29;7.87;;;7.07;;
22955;SDS011;40888;48.148;11.526;2023-11-22T03:58:55;5.63;;;5.13;;
22955;SDS011;40888;48.148;11.526;2023-11-22T04:01:22;5.20;;;4.70;;
22955;SDS011;40888;48.148;11.526;2023-11-22T04:03:48;6.43;;;5.60;;
22955;SDS011;40888;48.148;11.526;2023-11-22T04:06:15;5.13;;;4.63;;
22955;SDS011;40888;48.148;11.526;2023-11-22T04:08:45;5.23;;;4.83;;
22955;SDS011;40888;48.148;11.526;2023-11-22T04:11:11;6.27;;;5.67;;
22955;SDS011;40888;48.148;11.526;2023-11-22T04:13:38;7.33;;;6.63;;
22955;SDS011;40888;48.148;11.526;2023-11-22T04:16:04;6.67;;;6.07;;
22955;SDS011;40888;48.148;11.526;2023-11-22T04:18:34;5.43;;;4.93;;
22955;SDS011;40888;48.148;11.526;2023-11-22T04:21:01;5.17;;;4.67;;
22955;SDS011;40888;48.148;11.526;2023-11-22T04:23:29;4.67;;;4.27;;
22955;SDS011;40888;48.148;11.526;2023-11-22T04:25:56;5.60;;;5.10;;
22955;SDS011;40888;48.148;11.526;2023-11-22T04:28:23;7.37;;;6.67;;
22955;SDS011;40888;48.148;11.526;2023-11-22T04:30:50;7.00;;;6.40;;
22955;SDS011;40888;48.148;11.526;2023-11-22T04:33:17;7.37;;;6.67;;
22955;SDS011;40888;48.148;11.526;2023-11-22T04:35:43;6.97;;;6.33;;
22955;SDS011;40888;48.148;11.526;2023-11-22T04:38:09;8.30;;;7.50;;
22955;SDS011;40888;48.148;11.526;2023-11-22T04:40:35;9.50;;;8.60;;
22955;SDS011;40888;48.148;11.526;2023-11-22T04:43:02;6.47;;;5.53;;
22955;SDS011;40888;48.148;11.526;2023-11-22T04:45:28;8.17;;;7.37;;
22955;SDS011;40888;48.148;11.526;2023-11-22T04:47:54;8.37;;;7.57;;
22955;SDS011;40888;48.148;11.526;2023-11-22T04:50:22;7.80;;;7.10;;
22955;SDS011;40888;48.148;11.526;2023-11-22T04:52:51;9.47;;;8.47;;
22955;SDS011;40888;48.148;11.526;2023-11-22T04:55:17;5.83;;;5.27;;
22955;SDS011;40888;48.148;11.526;2023-11-22T04:57:44;5.07;;;4.67;;
22955;SDS011;40888;48.148;11.526;2023-11-22T05:00:11;5.10;;;4.70;;
22955;SDS011;40888;48.148;11.526;2023-11-22T05:02:37;4.47;;;4.07;;
22955;SDS011;40888;48.148;11.526;2023-11-22T05:05:05;4.97;;;4.57;;
22955;SDS011;40888;48.148;11.526;2023-11-22T05:07:31;6.93;;;6.33;;
22955;SDS011;40888;48.148;11.526;2023-11-22T05:09:57;7.60;;;6.90;;
22955;SDS011;40888;48.148;11.526;2023-11-22T05:12:23;5.60;;;5.10;;
22955;SDS011;40888;48.148;11.526;2023-11-22T05:14:49;4.53;;;4.13;;
22955;SDS011;40888;48.148;11.526;2023-11-22T05:17:16;6.10;;;5.60;;
22955;SDS011;40888;48.148;11.526;2023-11-22T05:19:42;7.23;;;6.57;;
22955;SDS011;40888;48.148;11.526;2023-11-22T05:22:08;7.40;;;6.60;;
22955;SDS011;40888;48.148;11.526;2023-11-22T05:24:34;5.43;;;4.93;;
22955;SDS011;40888;48.148;11.526;2023-11-22T05:27:00;6.43;;;5.93;;
22955;SDS011;40888;48.148;11.526;2023-11-22T05:29:27;7.17;;;6.40;;
22955;SDS011;40888;48.148;11.526;2023-11-22T05:31:53;4.97;;;4.57;;
22955;SDS011;40888;48.148;11.526;2023-11-22T05:34:19;4.53;;;4.13;;
22955;SDS011;40888;48.148;11.526;2023-11-22T05:36:46;4.03;;;3.73;;
22955;SDS011;40888;48.148;11.526;2023-11-22T05:39:13;5.80;;;5.20;;
22955;SDS011;40888;48.148;11.526;2023-11-22T05:41:39;4.77;;;4.30;;
22955;SDS011;40888;48.148;11.526;2023-11-22T05:44:05;4.40;;;4.00;;
22955;SDS011;40888;48.148;11.526;2023-11-22T05:46:33;4.93;;;4.53;;
22955;SDS011;40888;48.148;11.526;2023-11-22T05:48:59;4.53;;;4.13;;
22955;SDS011;40888;48.148;11.526;2023-11-22T05:51:25;4.40;;;4.00;;
22955;SDS011;40888;48.148;11.526;2023-11-22T05:53:52;5.83;;;5.33;;
22955;SDS011;40888;48.148;11.526;2023-11-22T05:56:18;5.97;;;5.47;;
22955;SDS011;40888;48.148;11.526;2023-11-22T05:58:44;7.03;;;6.33;;
22955;SDS011;40888;48.148;11.526;2023-11-22T06:01:10;7.20;;;6.50;;
22955;SDS011;40888;48.148;11.526;2023-11-22T06:03:39;7.53;;;6.90;;
22955;SDS011;40888;48.148;11.526;2023-11-22T06:06:05;4.60;;;4.20;;
22955;SDS011;40888;48.148;11.526;2023-11-22T06:08:32;4.37;;;4.07;;
22955;SDS011;40888;48.148;11.526;2023-11-22T06:10:58;4.17;;;3.87;;
22955;SDS011;40888;48.148;11.526;2023-11-22T06:13:25;6.53;;;5.93;;
22955;SDS011;40888;48.148;11.526;2023-11-22T06:15:51;5.30;;;4.83;;
22955;SDS011;40888;48.148;11.526;2023-11-22T06:18:17;5.83;;;5.33;;
22955;SDS011;40888;48.148;11.526;2023-11-22T06:20:44;6.47;;;5.87;;
22955;SDS011;40888;48.148;11.526;2023-11-22T06:23:10;7.90;;;7.10;;
22955;SDS011;40888;48.148;11.526;2023-11-22T06:25:36;5.93;;;5.43;;
22955;SDS011;40888;48.148;11.526;2023-11-22T06:28:02;6.40;;;5.90;;
22955;SDS011;40888;48.148;11.526;2023-11-22T06:30:28;7.37;;;6.67;;
22955;SDS011;40888;48.148;11.526;2023-11-22T06:32:55;6.00;;;5.50;;
22955;SDS011;40888;48.148;11.526;2023-11-22T06:35:21;8.73;;;7.67;;
22955;SDS011;40888;48.148;11.526;2023-11-22T06:37:48;8.50;;;7.70;;
22955;SDS011;40888;48.148;11.526;2023-11-22T06:40:14;6.37;;;5.87;;
22955;SDS011;40888;48.148;11.526;2023-11-22T06:42:42;10.07;;;8.67;;
22955;SDS011;40888;48.148;11.526;2023-11-22T06:45:08;10.87;;;9.77;;
22955;SDS011;40888;48.148;11.526;2023-11-22T06:47:41;9.77;;;8.77;;
22955;SDS011;40888;48.148;11.526;2023-11-22T06:50:08;12.07;;;9.80;;
22955;SDS011;40888;48.148;11.526;2023-11-22T06:52:36;12.10;;;9.67;;
22955;SDS011;40888;48.148;11.526;2023-11-22T06:55:03;9.63;;;8.70;;
22955;SDS011;40888;48.148;11.526;2023-11-22T06:57:29;6.30;;;5.70;;
22955;SDS011;40888;48.148;11.526;2023-11-22T06:59:56;6.97;;;6.37;;
22955;SDS011;40888;48.148;11.526;2023-11-22T07:02:22;9.17;;;8.27;;
22955;SDS011;40888;48.148;11.526;2023-11-22T07:04:48;9.00;;;8.10;;
22955;SDS011;40888;48.148;11.526;2023-11-22T07:07:14;7.07;;;6.37;;
22955;SDS011;40888;48.148;11.526;2023-11-22T07:09:43;9.03;;;8.23;;
22955;SDS011;40888;48.148;11.526;2023-11-22T07:12:11;7.07;;;6.47;;
22955;SDS011;40888;48.148;11.526;2023-11-22T07:14:37;6.60;;;6.00;;
22955;SDS011;40888;48.148;11.526;2023-11-22T07:17:03;6.63;;;6.00;;
22955;SDS011;40888;48.148;11.526;2023-11-22T07:19:32;6.80;;;6.23;;
22955;SDS011;40888;48.148;11.526;2023-11-22T07:22:03;8.30;;;7.60;;
22955;SDS011;40888;48.148;11.526;2023-11-22T07:24:29;9.40;;;8.60;;
22955;SDS011;40888;48.148;11.526;2023-11-22T07:26:59;8.40;;;7.60;;
22955;SDS011;40888;48.148;11.526;2023-11-22T07:29:26;7.97;;;7.27;;
22955;SDS011;40888;48.148;11.526;2023-11-22T07:31:54;9.67;;;8.80;;
22955;SDS011;40888;48.148;11.526;2023-11-22T07:34:21;8.93;;;8.03;;
22955;SDS011;40888;48.148;11.526;2023-11-22T07:36:48;10.43;;;9.43;;
22955;SDS011;40888;48.148;11.526;2023-11-22T07:39:15;10.47;;;9.47;;
22955;SDS011;40888;48.148;11.526;2023-11-22T07:41:44;10.50;;;9.60;;
22955;SDS011;40888;48.148;11.526;2023-11-22T07:44:13;11.13;;;10.13;;
22955;SDS011;40888;48.148;11.526;2023-11-22T07:46:41;9.27;;;8.47;;
22955;SDS011;40888;48.148;11.526;2023-11-22T07:49:09;8.57;;;7.77;;
22955;SDS011;40888;48.148;11.526;2023-11-22T07:51:35;9.83;;;8.90;;
22955;SDS011;40888;48.148;11.526;2023-11-22T07:54:02;9.83;;;8.93;;
22955;SDS011;40888;48.148;11.526;2023-11-22T07:56:28;12.27;;;11.07;;
22955;SDS011;40888;48.148;11.526;2023-11-22T07:58:57;13.90;;;11.60;;
22955;SDS011;40888;48.148;11.526;2023-11-22T08:01:23;11.60;;;10.50;;
22955;SDS011;40888;48.148;11.526;2023-11-22T08:03:50;14.57;;;13.13;;
22955;SDS011;40888;48.148;11.526;2023-11-22T08:06:17;11.13;;;9.93;;
22955;SDS011;40888;48.148;11.526;2023-11-22T08:08:43;13.43;;;12.03;;
22955;SDS011;40888;48.148;11.526;2023-11-22T08:11:11;10.23;;;9.23;;
22955;SDS011;40888;48.148;11.526;2023-11-22T08:13:41;12.27;;;11.07;;
22955;SDS011;40888;48.148;11.526;2023-11-22T08:16:08;13.33;;;12.03;;
22955;SDS011;40888;48.148;11.526;2023-11-22T08:18:34;11.63;;;10.53;;
22955;SDS011;40888;48.148;11.526;2023-11-22T08:21:00;10.80;;;9.70;;
22955;SDS011;40888;48.148;11.526;2023-11-22T08:23:26;13.70;;;12.20;;
22955;SDS011;40888;48.148;11.526;2023-11-22T08:25:52;9.30;;;8.50;;
22955;SDS011;40888;48.148;11.526;2023-11-22T08:28:21;8.93;;;8.13;;
22955;SDS011;40888;48.148;11.526;2023-11-22T08:30:47;8.73;;;7.90;;
22955;SDS011;40888;48.148;11.526;2023-11-22T08:33:13;8.77;;;7.97;;
22955;SDS011;40888;48.148;11.526;2023-11-22T08:35:39;15.23;;;13.40;;
22955;SDS011;40888;48.148;11.526;2023-11-22T08:38:06;11.37;;;10.30;;
22955;SDS011;40888;48.148;11.526;2023-11-22T08:40:34;8.30;;;7.30;;
22955;SDS011;40888;48.148;11.526;2023-11-22T08:43:02;7.67;;;6.97;;
22955;SDS011;40888;48.148;11.526;2023-11-22T08:45:29;8.07;;;7.37;;
22955;SDS011;40888;48.148;11.526;2023-11-22T08:47:56;7.47;;;6.77;;
22955;SDS011;40888;48.148;11.526;2023-11-22T08:50:22;8.53;;;7.83;;
22955;SDS011;40888;48.148;11.526;2023-11-22T08:52:49;12.07;;;10.83;;
22955;SDS011;40888;48.148;11.526;2023-11-22T08:55:21;13.90;;;12.17;;
22955;SDS011;40888;48.148;11.526;2023-11-22T08:57:47;10.90;;;9.90;;
22955;SDS011;40888;48.148;11.526;2023-11-22T09:00:16;9.77;;;8.93;;
22955;SDS011;40888;48.148;11.526;2023-11-22T09:02:48;8.87;;;8.07;;
22955;SDS011;40888;48.148;11.526;2023-11-22T09:05:14;8.03;;;7.33;;
22955;SDS011;40888;48.148;11.526;2023-11-22T09:07:42;7.87;;;7.27;;
22955;SDS011;40888;48.148;11.526;2023-11-22T09:10:09;7.70;;;7.10;;
22955;SDS011;40888;48.148;11.526;2023-11-22T09:12:38;11.17;;;10.13;;
22955;SDS011;40888;48.148;11.526;2023-11-22T09:15:06;11.70;;;10.67;;
22955;SDS011;40888;48.148;11.526;2023-11-22T09:17:35;7.90;;;7.20;;
22955;SDS011;40888;48.148;11.526;2023-11-22T09:20:01;7.73;;;7.03;;
22955;SDS011;40888;48.148;11.526;2023-11-22T09:22:28;9.17;;;8.27;;
22955;SDS011;40888;48.148;11.526;2023-11-22T09:24:54;11.63;;;10.53;;
22955;SDS011;40888;48.148;11.526;2023-11-22T09:27:21;13.27;;;12.07;;
22955;SDS011;40888;48.148;11.526;2023-11-22T09:29:47;13.67;;;12.27;;
22955;SDS011;40888;48.148;11.526;2023-11-22T09:32:14;8.70;;;7.90;;
22955;SDS011;40888;48.148;11.526;2023-11-22T09:34:40;11.97;;;10.83;;
22955;SDS011;40888;48.148;11.526;2023-11-22T09:37:09;11.23;;;10.20;;
22955;SDS011;40888;48.148;11.526;2023-11-22T09:39:35;13.07;;;11.87;;
22955;SDS011;40888;48.148;11.526;2023-11-22T09:42:01;9.17;;;8.37;;
22955;SDS011;40888;48.148;11.526;2023-11-22T09:44:28;9.83;;;8.93;;
22955;SDS011;40888;48.148;11.526;2023-11-22T09:46:54;10.47;;;9.57;;
22955;SDS011;40888;48.148;11.526;2023-11-22T09:49:23;11.43;;;10.27;;
22955;SDS011;40888;48.148;11.526;2023-11-22T09:51:51;13.03;;;11.83;;
22955;SDS011;40888;48.148;11.526;2023-11-22T09:54:21;12.13;;;10.93;;
22955;SDS011;40888;48.148;11.526;2023-11-22T09:56:54;13.50;;;12.20;;
22955;SDS011;40888;48.148;11.526;2023-11-22T09:59:21;9.07;;;8.27;;
22955;SDS011;40888;48.148;11.526;2023-11-22T10:01:48;11.43;;;10.33;;
22955;SDS011;40888;48.148;11.526;2023-11-22T10:04:14;11.20;;;10.13;;
22955;SDS011;40888;48.148;11.526;2023-11-22T10:06:40;8.80;;;8.00;;
22955;SDS011;40888;48.148;11.526;2023-11-22T10:09:11;10.27;;;9.27;;
22955;SDS011;40888;48.148;11.526;2023-11-22T10:11:39;7.83;;;7.13;;
22955;SDS011;40888;48.148;11.526;2023-11-22T10:14:08;6.40;;;5.87;;
22955;SDS011;40888;48.148;11.526;2023-11-22T10:16:34;7.40;;;6.80;;
22955;SDS011;40888;48.148;11.526;2023-11-22T10:19:00;6.80;;;6.30;;
22955;SDS011;40888;48.148;11.526;2023-11-22T10:21:27;6.30;;;5.80;;
22955;SDS011;40888;48.148;11.526;2023-11-22T10:23:56;9.47;;;8.67;;
22955;SDS011;40888;48.148;11.526;2023-11-22T10:26:22;8.53;;;7.83;;
22955;SDS011;40888;48.148;11.526;2023-11-22T10:28:52;6.50;;;5.90;;
22955;SDS011;40888;48.148;11.526;2023-11-22T10:31:18;7.10;;;6.50;;
22955;SDS011;40888;48.148;11.526;2023-11-22T10:33:45;6.30;;;5.70;;
22955;SDS011;40888;48.148;11.526;2023-11-22T10:36:11;6.13;;;5.63;;
22955;SDS011;40888;48.148;11.526;2023-11-22T10:38:37;6.00;;;5.40;;
22955;SDS011;40888;48.148;11.526;2023-11-22T10:41:04;6.67;;;6.17;;
22955;SDS011;40888;48.148;11.526;2023-11-22T10:43:30;5.73;;;5.33;;
22955;SDS011;40888;48.148;11.526;2023-11-22T10:46:00;7.80;;;7.20;;
22955;SDS011;40888;48.148;11.526;2023-11-22T10:48:27;6.27;;;5.77;;
22955;SDS011;40888;48.148;11.526;2023-11-22T10:50:55;5.90;;;5.40;;
22955;SDS011;40888;48.148;11.526;2023-11-22T10:53:28;5.50;;;5.00;;
22955;SDS011;40888;48.148;11.526;2023-11-22T10:55:59;5.83;;;4.90;;
22955;SDS011;40888;48.148;11.526;2023-11-22T10:58:28;6.13;;;5.53;;
22955;SDS011;40888;48.148;11.526;2023-11-22T11:00:56;7.10;;;6.50;;
22955;SDS011;40888;48.148;11.526;2023-11-22T11:03:22;5.83;;;5.33;;
22955;SDS011;40888;48.148;11.526;2023-11-22T11:05:54;5.13;;;4.73;;
22955;SDS011;40888;48.148;11.526;2023-11-22T11:08:22;5.87;;;5.47;;
22955;SDS011;40888;48.148;11.526;2023-11-22T11:10:50;5.20;;;4.80;;
22955;SDS011;40888;48.148;11.526;2023-11-22T11:13:17;7.30;;;6.70;;
22955;SDS011;40888;48.148;11.526;2023-11-22T11:15:44;10.17;;;9.27;;
22955;SDS011;40888;48.148;11.526;2023-11-22T11:18:14;8.00;;;7.30;;
22955;SDS011;40888;48.148;11.526;2023-11-22T11:23:20;8.40;;;7.70;;
22955;SDS011;40888;48.148;11.526;2023-11-22T11:25:50;10.70;;;9.70;;
22955;SDS011;40888;48.148;11.526;2023-11-22T11:28:18;7.20;;;6.50;;
22955;SDS011;40888;48.148;11.526;2023-11-22T11:30:45;6.67;;;6.07;;
22955;SDS011;40888;48.148;11.526;2023-11-22T11:33:13;6.43;;;5.90;;
22955;SDS011;40888;48.148;11.526;2023-11-22T11:35:51;5.60;;;5.20;;
22955;SDS011;40888;48.148;11.526;2023-11-22T11:38:20;6.27;;;5.73;;
22955;SDS011;40888;48.148;11.526;2023-11-22T11:40:47;5.50;;;5.00;;
22955;SDS011;40888;48.148;11.526;2023-11-22T11:43:14;6.30;;;5.73;;
22955;SDS011;40888;48.148;11.526;2023-11-22T11:45:43;6.60;;;6.07;;
22955;SDS011;40888;48.148;11.526;2023-11-22T11:48:13;5.50;;;5.10;;
22955;SDS011;40888;48.148;11.526;2023-11-22T11:50:40;8.17;;;7.40;;
22955;SDS011;40888;48.148;11.526;2023-11-22T11:53:06;6.87;;;6.33;;
22955;SDS011;40888;48.148;11.526;2023-11-22T11:55:32;6.40;;;5.60;;
22955;SDS011;40888;48.148;11.526;2023-11-22T11:58:04;7.80;;;7.17;;
22955;SDS011;40888;48.148;11.526;2023-11-22T12:00:36;7.33;;;6.63;;
22955;SDS011;40888;48.148;11.526;2023-11-22T12:03:06;6.20;;;5.70;;
22955;SDS011;40888;48.148;11.526;2023-11-22T12:05:34;8.10;;;7.40;;
22955;SDS011;40888;48.148;11.526;2023-11-22T12:08:01;6.43;;;5.93;;
22955;SDS011;40888;48.148;11.526;2023-11-22T12:10:28;6.00;;;5.50;;
22955;SDS011;40888;48.148;11.526;2023-11-22T12:12:54;5.03;;;4.53;;
22955;SDS011;40888;48.148;11.526;2023-11-22T12:15:20;6.57;;;6.07;;
22955;SDS011;40888;48.148;11.526;2023-11-22T12:17:50;5.17;;;4.67;;
22955;SDS011;40888;48.148;11.526;2023-11-22T12:20:17;5.47;;;4.97;;
22955;SDS011;40888;48.148;11.526;2023-11-22T12:22:46;4.93;;;4.53;;
22955;SDS011;40888;48.148;11.526;2023-11-22T12:25:13;7.43;;;6.83;;
22955;SDS011;40888;48.148;11.526;2023-11-22T12:27:43;5.87;;;5.37;;
22955;SDS011;40888;48.148;11.526;2023-11-22T12:30:27;6.10;;;5.60;;
22955;SDS011;40888;48.148;11.526;2023-11-22T12:32:53;5.73;;;5.23;;
22955;SDS011;40888;48.148;11.526;2023-11-22T12:35:20;7.27;;;6.67;;
22955;SDS011;40888;48.148;11.526;2023-11-22T12:37:46;6.63;;;6.00;;
22955;SDS011;40888;48.148;11.526;2023-11-22T12:40:13;5.70;;;5.20;;
22955;SDS011;40888;48.148;11.526;2023-11-22T12:42:47;8.03;;;7.33;;
22955;SDS011;40888;48.148;11.526;2023-11-22T12:45:17;7.33;;;6.73;;
22955;SDS011;40888;48.148;11.526;2023-11-22T12:47:44;6.10;;;5.50;;
22955;SDS011;40888;48.148;11.526;2023-11-22T12:50:28;6.53;;;5.93;;
22955;SDS011;40888;48.148;11.526;2023-11-22T12:52:55;9.07;;;8.17;;
22955;SDS011;40888;48.148;11.526;2023-11-22T12:55:21;7.70;;;7.00;;
22955;SDS011;40888;48.148;11.526;2023-11-22T12:57:57;6.57;;;5.97;;
22955;SDS011;40888;48.148;11.526;2023-11-22T13:00:26;8.13;;;7.43;;
22955;SDS011;40888;48.148;11.526;2023-11-22T13:02:54;6.43;;;5.83;;
22955;SDS011;40888;48.148;11.526;2023-11-22T13:05:21;7.30;;;6.60;;
22955;SDS011;40888;48.148;11.526;2023-11-22T13:07:47;9.37;;;8.57;;
22955;SDS011;40888;48.148;11.526;2023-11-22T13:10:14;10.03;;;9.20;;
22955;SDS011;40888;48.148;11.526;2023-11-22T13:12:43;6.17;;;5.70;;
22955;SDS011;40888;48.148;11.526;2023-11-22T13:15:10;10.37;;;9.47;;
22955;SDS011;40888;48.148;11.526;2023-11-22T13:17:37;8.70;;;7.90;;
22955;SDS011;40888;48.148;11.526;2023-11-22T13:20:06;7.13;;;6.53;;
22955;SDS011;40888;48.148;11.526;2023-11-22T13:22:38;9.73;;;8.93;;
22955;SDS011;40888;48.148;11.526;2023-11-22T13:25:05;7.00;;;6.40;;
22955;SDS011;40888;48.148;11.526;2023-11-22T13:27:31;8.87;;;8.07;;
22955;SDS011;40888;48.148;11.526;2023-11-22T13:29:57;9.70;;;8.90;;
22955;SDS011;40888;48.148;11.526;2023-11-22T13:32:23;7.30;;;6.70;;
22955;SDS011;40888;48.148;11.526;2023-11-22T13:34:51;5.77;;;5.30;;
22955;SDS011;40888;48.148;11.526;2023-11-22T13:37:25;7.43;;;6.83;;
22955;SDS011;40888;48.148;11.526;2023-11-22T13:39:54;8.13;;;7.43;;
22955;SDS011;40888;48.148;11.526;2023-11-22T13:42:20;7.13;;;6.53;;
22955;SDS011;40888;48.148;11.526;2023-11-22T13:44:46;5.23;;;4.73;;
22955;SDS011;40888;48.148;11.526;2023-11-22T13:47:13;7.40;;;6.80;;
22955;SDS011;40888;48.148;11.526;2023-11-22T13:49:39;8.20;;;7.50;;
22955;SDS011;40888;48.148;11.526;2023-11-22T13:52:07;9.17;;;8.37;;
22955;SDS011;40888;48.148;11.526;2023-11-22T13:54:33;6.43;;;5.23;;
22955;SDS011;40888;48.148;11.526;2023-11-22T13:57:03;6.73;;;6.17;;
22955;SDS011;40888;48.148;11.526;2023-11-22T13:59:31;8.80;;;8.00;;
22955;SDS011;40888;48.148;11.526;2023-11-22T14:01:57;9.13;;;8.27;;
22955;SDS011;40888;48.148;11.526;2023-11-22T14:04:23;8.73;;;8.03;;
22955;SDS011;40888;48.148;11.526;2023-11-22T14:06:49;9.30;;;8.50;;
22955;SDS011;40888;48.148;11.526;2023-11-22T14:09:15;10.63;;;9.73;;
22955;SDS011;40888;48.148;11.526;2023-11-22T14:11:41;7.90;;;7.20;;
22955;SDS011;40888;48.148;11.526;2023-11-22T14:14:07;9.23;;;8.43;;
22955;SDS011;40888;48.148;11.526;2023-11-22T14:16:34;9.93;;;9.03;;
22955;SDS011;40888;48.148;11.526;2023-11-22T14:19:03;5.47;;;4.97;;
22955;SDS011;40888;48.148;11.526;2023-11-22T14:21:31;6.43;;;5.93;;
22955;SDS011;40888;48.148;11.526;2023-11-22T14:23:58;9.27;;;8.57;;
22955;SDS011;40888;48.148;11.526;2023-11-22T14:26:24;5.77;;;5.27;;
22955;SDS011;40888;48.148;11.526;2023-11-22T14:28:51;8.90;;;8.10;;
22955;SDS011;40888;48.148;11.526;2023-11-22T14:31:17;7.63;;;7.03;;